Date,TemperatureHighF,TemperatureAvgF,TemperatureLowF,DewpointHighF,DewpointAvgF,DewpointLowF,HumidityHigh,HumidityAvg,HumidityLow,PressureMaxIn,PressureMinIn,WindSpeedMaxMPH,WindSpeedAvgMPH,GustSpeedMaxMPH,PrecipitationSumIn
2013-1-1,67,54,45,66,51,39,96,88,79,30.14,29.84,10,5,19,0.25
2013-1-2,45,43,42,39,36,34,85,77,71,30.25,30.13,9,5,17,0.01
2013-1-3,54,46,38,35,32,29,75,61,39,30.36,30.24,9,5,16,0.01
2013-1-4,49,47,44,37,35,31,70,62,52,30.44,30.30,8,4,14,0.00
2013-1-5,47,46,43,45,42,36,94,89,66,30.32,30.19,5,1,11,0.40
2013-1-6,59,48,40,45,41,36,95,77,46,30.31,30.19,10,3,14,0.01
2013-1-7,59,48,35,46,40,33,93,78,60,30.26,30.04,6,2,13,0.00
2013-1-8,63,58,51,62,55,44,96,92,73,30.04,29.82,13,3,24,0.42
2013-1-9,67,64,61,64,62,60,96,94,88,30.00,29.80,11,4,20,2.04
2013-1-10,68,60,51,60,52,45,96,78,46,30.05,29.93,6,1,13,0.04
2013-1-11,67,59,47,66,57,45,96,92,86,30.00,29.82,5,1,10,0.01
2013-1-12,74,72,67,70,69,66,97,90,82,29.83,29.64,12,6,22,0.18
2013-1-13,71,48,41,69,41,36,93,79,62,30.08,29.72,15,9,26,0.16
2013-1-14,46,45,44,38,36,35,80,72,68,30.07,30.02,11,7,19,0.02
2013-1-15,44,39,37,38,36,32,93,87,79,30.12,29.99,12,5,20,0.09
2013-1-16,53,42,36,33,28,18,84,62,28,30.26,30.10,12,8,20,0.00
2013-1-18,63,61,58,37,35,31,45,38,33,30.47,30.33,7,4,12,0.00
2013-1-22,64,57,49,51,49,48,94,78,62,30.27,30.24,2,1,5,0.00
2013-1-24,62,62,62,60,60,60,94,93,93,30.11,30.11,2,2,5,0.01
2013-1-25,62,61,59,61,60,58,97,96,94,30.11,30.07,4,1,10,0.00
2013-1-28,73,72,72,68,66,66,86,81,77,29.93,29.89,11,9,20,0.00
2013-1-29,77,72,59,68,66,55,87,81,66,29.90,29.55,16,9,25,0.08
2013-1-30,60,58,52,55,32,23,84,40,27,30.09,29.71,21,9,33,0.00
2013-2-3,60,59,58,43,42,41,57,54,49,30.27,30.26,5,4,11,0.00
2013-2-6,63,62,62,58,58,58,86,86,85,29.86,29.85,5,5,11,0.39
2013-2-8,68,68,68,51,51,51,56,56,55,30.11,30.11,5,4,8,0.00
2013-2-12,55,55,55,54,53,53,95,93,92,29.90,29.82,6,3,11,0.00
2013-2-13,62,53,44,46,39,36,80,62,42,30.08,29.95,14,6,31,0.00
2013-2-14,44,41,39,38,37,36,87,84,80,30.06,30.05,0,0,0,0.00
2013-2-15,69,58,50,41,38,34,64,49,31,30.28,30.08,12,8,22,0.00
2013-2-16,50,49,47,34,31,29,54,50,47,30.30,30.28,9,6,16,0.00
2013-2-18,61,6,60,52,-84,-100,74,8,69,30.00,-32.77,17,-892,17,0.33
2013-2-19,66,58,56,50,40,-100,79,54,32,30.11,-32.77,8,-8,17,0.00
2013-2-20,60,59,57,55,51,47,88,74,64,30.00,29.85,12,8,25,0.02
2013-2-23,48,48,48,43,43,43,80,80,80,29.89,29.89,0,0,0,0.00
2013-2-24,48,48,48,44,43,43,83,81,80,29.89,29.87,0,0,0,0.00
2013-2-25,69,55,48,32,29,25,53,38,20,29.74,29.51,19,12,37,0.03
2013-2-26,48,46,43,33,32,31,63,59,54,29.81,29.74,13,8,19,0.00
2013-2-27,61,53,49,33,30,26,48,41,35,30.12,30.02,10,4,12,0.00
2013-2-28,59,51,41,32,29,25,67,44,31,30.24,30.11,12,5,18,0.00
2013-3-1,66,52,36,34,29,21,81,46,18,30.25,30.09,10,3,18,0.00
2013-3-2,58,48,39,33,27,18,70,46,24,30.33,30.20,17,6,29,0.00
2013-3-3,70,52,34,48,35,25,82,57,27,30.24,29.95,9,4,17,0.00
2013-3-4,77,66,54,61,56,48,88,71,45,29.95,29.73,15,8,28,0.00
2013-3-5,70,65,55,61,49,32,84,61,25,30.14,29.75,16,11,29,0.00
2013-3-8,72,66,62,58,57,56,86,74,61,30.09,30.02,11,7,20,0.00
2013-3-9,76,68,62,63,61,58,90,78,61,30.02,29.73,15,7,25,0.00
2013-3-10,70,62,53,65,52,36,93,70,39,30.02,29.67,13,7,30,0.38
2013-3-11,53,49,46,37,35,34,66,59,53,30.05,29.97,8,3,19,0.00
2013-3-16,80,73,64,61,58,55,84,62,45,29.92,29.79,11,7,25,0.00
2013-3-17,82,71,62,65,62,59,94,76,51,29.82,29.63,11,4,21,0.00
2013-3-18,90,76,68,67,62,56,92,66,33,29.83,29.65,8,2,18,0.00
2013-3-19,75,68,64,57,54,49,73,63,46,29.92,29.84,10,4,17,0.00
2013-3-20,76,64,56,59,47,34,92,60,23,30.13,29.97,11,4,20,0.28
2013-3-21,74,63,53,61,54,48,91,74,45,30.00,29.66,14,4,22,0.00
2013-3-22,80,73,66,68,65,61,92,78,63,29.67,29.61,7,2,14,0.00
2013-3-25,63,58,49,26,22,19,41,26,19,30.32,30.18,9,4,20,0.00
2013-4-16,82,78,74,72,70,68,90,78,64,29.88,29.80,11,7,20,0.01
2013-4-17,77,74,72,72,71,70,93,89,85,29.87,29.69,11,6,20,0.01
2013-4-18,76,65,54,71,59,43,91,81,66,29.99,29.64,16,8,27,0.06
2013-4-19,68,56,47,43,34,26,66,46,22,30.19,29.99,14,6,24,0.00
2013-4-20,71,56,39,47,40,32,88,59,31,30.19,30.03,9,3,14,0.00
2013-4-21,75,64,52,56,52,47,85,68,48,30.11,29.99,8,2,13,0.01
2013-4-22,83,67,53,62,57,50,94,73,42,30.07,29.88,9,2,13,0.00
2013-4-23,81,71,62,67,63,55,94,78,57,29.94,29.81,12,3,16,0.01
2013-4-24,73,60,48,55,46,42,90,62,37,30.15,29.94,14,6,21,0.11
2013-4-25,75,65,59,58,47,39,74,53,29,30.25,30.12,8,3,16,0.00
2013-4-26,82,73,66,68,65,58,91,77,59,30.15,30.01,11,5,17,0.00
2013-4-27,77,70,64,70,66,62,96,89,75,30.06,29.92,17,3,22,2.23
2013-4-28,80,71,63,65,63,60,95,78,55,30.00,29.83,15,2,21,0.18
2013-4-29,83,71,66,69,66,63,96,85,52,29.89,29.77,7,1,12,0.05
2013-4-30,83,73,65,69,66,63,96,79,56,29.78,29.67,8,1,13,0.09
2013-5-1,85,71,67,68,56,-100,94,70,52,29.84,29.74,8,-58,11,0.00
2013-5-2,76,65,50,68,57,40,94,75,58,30.15,29.83,17,7,29,0.00
2013-5-3,67,55,47,40,34,25,72,48,21,30.16,30.01,16,9,28,0.00
2013-5-4,81,63,43,51,41,37,87,51,22,30.05,29.81,9,2,19,0.00
2013-5-5,72,63,54,51,45,41,74,53,35,30.05,29.91,12,4,20,0.00
2013-5-6,77,59,48,59,37,-100,89,57,37,30.07,29.92,8,-81,10,0.00
2013-5-7,87,58,56,58,22,-100,90,44,32,30.02,29.90,8,-205,8,0.00
2013-5-8,83,55,61,64,24,-100,90,54,43,30.01,29.90,14,-229,17,0.00
2013-5-11,82,76,71,59,55,53,55,49,46,30.04,29.93,7,3,11,0.00
2013-5-12,83,73,64,61,55,50,76,55,33,30.12,30.01,6,1,12,0.00
2013-5-13,83,71,57,60,57,54,92,63,39,30.23,30.11,8,2,12,0.00
2013-5-14,82,70,60,69,62,57,96,77,55,30.17,30.04,8,3,14,0.00
2013-5-15,80,72,67,70,67,64,93,85,67,30.08,29.86,10,5,17,0.06
2013-5-16,83,76,69,71,69,66,92,80,62,29.90,29.75,11,5,18,0.00
2013-5-17,87,78,72,73,70,67,92,78,62,29.88,29.78,11,4,14,0.00
2013-5-18,89,80,74,72,70,66,91,74,47,29.89,29.83,10,5,18,0.00
2013-5-19,88,80,74,71,70,67,87,73,52,29.84,29.74,11,6,19,0.00
2013-5-20,87,80,76,73,72,70,85,75,58,29.83,29.71,11,6,19,0.00
2013-5-21,87,80,76,73,72,70,87,76,59,29.81,29.66,12,5,18,0.00
2013-5-22,91,81,74,74,72,68,89,76,55,29.86,29.73,10,2,16,0.03
2013-5-23,88,80,74,74,72,70,94,79,59,29.99,29.84,11,4,13,0.01
2013-5-24,88,80,75,75,72,69,93,79,57,30.06,29.95,11,4,17,0.00
2013-5-25,83,78,74,73,72,70,93,82,65,30.09,29.99,8,3,14,0.00
2013-5-26,88,80,74,74,70,64,93,74,47,30.05,29.94,8,3,16,0.00
2013-5-27,87,79,72,72,70,66,92,75,57,29.99,29.86,11,5,18,0.00
2013-5-28,86,79,74,74,70,66,89,76,57,29.90,29.80,11,6,18,0.03
2013-5-29,84,79,75,73,72,70,87,79,65,29.83,29.74,16,6,19,0.00
2013-5-30,86,81,75,75,73,71,89,78,64,29.81,29.74,11,6,21,0.01
2013-5-31,90,83,77,76,74,70,92,76,53,29.84,29.76,9,5,19,0.00
2013-6-1,92,83,77,75,73,71,91,74,52,29.84,29.77,9,4,16,0.00
2013-6-2,85,76,70,74,70,67,95,83,60,29.99,29.82,10,2,18,0.30
2013-6-3,93,80,68,70,65,58,94,65,31,29.91,29.76,6,1,11,0.00
2013-6-4,92,80,70,72,68,65,92,69,43,29.86,29.75,7,2,12,0.00
2013-6-5,93,82,72,76,71,67,95,72,44,29.84,29.69,7,2,13,0.00
2013-6-6,97,84,74,75,71,65,92,68,38,29.83,29.66,9,2,18,0.00
2013-6-7,88,79,69,68,64,56,90,64,37,29.89,29.79,7,2,12,0.00
2013-6-8,89,79,71,78,68,59,88,69,52,29.87,29.75,11,2,17,0.47
2013-6-9,89,76,70,76,71,64,94,86,62,29.93,29.79,11,1,19,1.26
2013-6-10,92,80,70,75,72,68,95,77,49,29.93,29.87,11,2,17,0.01
2013-6-11,90,82,74,78,74,71,94,78,58,29.98,29.91,8,2,13,0.03
2013-6-12,91,82,76,80,74,68,93,79,58,30.00,29.91,6,1,13,0.13
2013-6-13,96,84,75,77,73,67,93,72,45,30.01,29.85,6,1,10,0.00
2013-6-14,96,85,76,78,73,66,93,70,38,29.92,29.81,5,1,10,0.00
2013-6-15,95,84,77,77,73,69,90,73,48,29.94,29.83,5,1,8,0.00
2013-6-16,97,84,75,76,72,68,93,70,41,29.96,29.86,4,1,13,0.00
2013-6-17,94,84,75,76,73,68,93,71,45,29.94,29.81,6,1,11,0.00
2013-6-18,96,83,75,78,73,67,93,73,45,29.93,29.81,8,1,11,0.06
2013-6-19,97,84,75,76,71,63,91,67,36,29.93,29.84,5,1,12,0.00
2013-6-20,94,84,76,76,72,67,91,69,46,30.01,29.90,9,3,14,0.00
2013-6-21,93,84,75,76,72,67,93,69,43,30.03,29.94,7,2,11,0.00
2013-6-22,94,84,75,76,71,65,92,69,39,30.00,29.88,10,2,13,0.00
2013-6-23,91,83,75,77,72,68,91,71,51,29.96,29.87,8,2,19,0.07
2013-6-24,94,84,76,75,72,66,89,68,41,30.00,29.90,9,3,18,0.00
2013-6-25,95,85,77,77,72,64,89,68,38,29.97,29.87,8,3,14,0.00
2013-6-26,96,85,76,76,71,65,89,67,37,29.94,29.84,8,2,13,0.00
2013-6-27,100,86,75,76,70,61,92,65,32,29.98,29.84,5,1,10,0.00
2013-6-28,101,87,75,76,69,58,92,62,25,29.93,29.74,6,1,13,0.00
2013-6-29,105,90,76,75,69,59,89,57,23,29.80,29.64,8,2,13,0.00
2013-6-30,98,88,78,74,64,56,81,47,26,29.81,29.70,8,2,16,0.00
2013-7-1,92,84,73,63,57,52,62,42,28,29.89,29.78,7,2,11,0.00
2013-7-2,95,83,70,64,59,50,71,48,24,29.95,29.85,8,2,12,0.00
2013-7-3,96,82,72,68,62,52,81,53,24,29.96,29.83,9,1,11,0.00
2013-7-4,95,83,71,70,65,58,83,57,30,29.93,29.83,9,1,14,0.00
2013-7-5,95,84,72,72,66,56,88,59,28,29.92,29.79,8,2,13,0.00
2013-7-6,94,84,75,74,70,64,88,67,38,29.87,29.78,10,3,17,0.00
2013-7-7,89,82,76,76,73,69,90,74,52,29.94,29.84,12,3,18,0.00
2013-7-8,89,80,76,75,73,69,91,79,58,30.10,29.94,7,2,14,0.08
2013-7-9,95,84,75,77,73,69,94,71,44,30.09,29.97,10,2,19,0.01
2013-7-10,94,85,76,77,72,67,92,68,43,30.04,29.89,8,2,19,0.00
2013-7-11,98,85,75,76,70,62,92,65,33,29.95,29.83,6,1,11,0.00
2013-7-12,97,85,77,75,72,66,88,66,38,29.91,29.81,7,2,13,0.00
2013-7-13,100,86,74,75,69,62,90,61,30,29.92,29.77,6,1,14,0.00
2013-7-14,91,83,74,74,71,66,93,68,46,29.88,29.78,8,2,13,0.11
2013-7-15,86,78,73,75,72,68,94,84,63,29.97,29.84,7,1,13,0.03
2013-7-16,87,79,75,76,72,67,90,80,60,30.05,29.95,10,2,21,0.04
2013-7-17,83,77,74,75,73,71,95,87,72,30.12,30.03,6,1,10,0.17
2013-7-18,93,83,74,75,69,58,94,67,33,30.08,29.93,8,2,16,0.01
2013-7-19,94,80,74,78,72,63,92,77,38,30.00,29.87,9,1,16,0.02
2013-7-20,91,80,76,77,73,68,90,81,55,29.92,29.81,11,1,17,0.14
2013-7-21,87,80,74,77,74,70,94,83,62,29.94,29.85,10,2,16,0.27
2013-7-22,93,84,77,78,74,70,94,74,48,29.96,29.88,10,3,19,0.00
2013-7-23,96,84,76,78,73,65,94,72,37,29.97,29.86,7,2,11,0.00
2013-7-24,98,85,74,75,72,65,93,69,36,29.95,29.81,5,1,14,0.00
2013-7-25,99,86,75,75,71,62,91,66,31,29.97,29.89,9,2,13,0.00
2013-7-26,95,84,76,78,73,68,94,72,43,29.98,29.84,6,1,13,0.00
2013-7-27,96,85,78,78,74,68,93,74,41,29.90,29.78,8,2,14,0.80
2013-7-28,90,82,77,78,75,69,94,79,52,29.91,29.83,6,1,17,0.52
2013-7-29,94,84,77,76,71,58,92,68,31,30.02,29.90,10,3,18,0.00
2013-7-30,95,84,75,76,71,58,92,69,31,30.06,29.95,10,3,20,0.00
2013-7-31,101,85,74,76,71,64,93,67,31,30.04,29.87,8,1,17,0.00
2013-8-1,99,86,76,77,72,66,93,67,35,29.98,29.83,7,2,11,0.00
2013-8-2,97,86,76,77,72,65,92,68,38,29.93,29.83,10,2,19,0.00
2013-8-3,98,86,75,76,73,67,93,68,38,29.98,29.88,10,2,17,0.00
2013-8-4,96,86,78,79,74,67,92,71,46,30.02,29.90,11,2,18,0.11
2013-8-5,98,86,76,77,72,66,93,68,35,29.99,29.86,7,2,14,0.00
2013-8-6,97,86,76,79,73,68,94,70,40,29.92,29.81,8,2,19,0.00
2013-8-7,99,86,76,77,72,60,93,67,28,29.89,29.77,8,2,13,0.00
2013-8-8,99,85,75,77,71,61,93,67,29,29.88,29.76,10,2,17,0.00
2013-8-9,98,86,74,77,72,67,93,68,38,29.90,29.80,8,2,13,0.00
2013-8-10,93,85,79,79,74,70,91,73,48,29.98,29.89,8,2,12,0.00
2013-8-11,93,84,78,78,73,67,90,69,44,30.00,29.93,11,2,16,0.00
2013-8-12,96,85,76,77,73,69,92,70,43,30.01,29.90,8,1,17,0.00
2013-8-13,102,88,77,78,71,60,92,64,28,29.98,29.82,6,1,16,0.00
2013-8-14,99,84,75,77,72,60,92,72,29,29.93,29.79,13,2,24,0.29
2013-8-15,91,80,74,74,70,63,93,74,41,29.96,29.84,4,1,10,0.01
2013-8-16,97,82,71,74,70,65,92,71,35,29.94,29.80,10,1,20,0.20
2013-8-17,94,82,72,70,65,55,92,61,30,29.95,29.83,8,2,13,0.00
2013-8-18,92,82,71,70,65,57,83,59,31,29.97,29.89,7,2,14,0.00
2013-8-19,94,82,72,72,66,56,90,63,30,29.99,29.86,9,2,14,0.00
2013-8-20,87,79,73,74,71,69,91,76,57,29.98,29.90,10,1,18,0.00
2013-8-21,94,82,74,75,71,66,92,72,41,30.01,29.92,13,2,16,0.00
2013-8-22,93,84,76,78,73,69,92,72,48,30.00,29.87,8,2,12,0.00
2013-8-23,96,85,75,76,71,66,91,67,38,29.95,29.81,9,2,12,0.00
2013-8-24,96,86,77,76,71,64,86,64,36,29.96,29.87,9,2,12,0.00
2013-8-25,86,81,78,77,73,69,88,77,62,30.01,29.93,9,3,18,0.05
2013-8-26,82,76,74,75,73,71,94,89,72,30.06,29.98,9,2,17,0.33
2013-8-27,92,79,73,76,73,69,95,83,48,30.06,29.97,8,2,13,0.23
2013-8-28,93,82,72,79,70,66,96,71,41,30.04,29.92,6,1,11,0.00
2013-8-29,99,85,75,77,71,63,91,66,34,30.02,29.86,6,1,12,0.00
2013-8-30,98,85,77,77,73,67,91,69,41,29.97,29.83,8,1,13,0.00
2013-8-31,95,84,75,76,71,67,90,68,43,29.89,29.77,6,1,13,0.00
2013-9-1,97,84,73,74,71,66,91,67,38,29.87,29.76,6,1,11,0.00
2013-9-2,100,86,76,77,72,62,92,67,30,29.92,29.78,6,1,10,0.00
2013-9-3,100,87,75,76,71,62,92,64,31,29.93,29.80,4,1,10,0.00
2013-9-4,94,85,77,77,72,66,90,67,41,29.98,29.87,7,2,13,0.00
2013-9-5,95,84,76,76,72,66,90,69,39,30.02,29.92,9,2,17,0.00
2013-9-6,92,84,76,75,73,68,89,71,49,30.01,29.89,8,2,17,0.00
2013-9-7,88,81,76,78,72,66,91,76,56,29.96,29.87,8,2,14,0.11
2013-9-8,90,80,74,75,71,66,93,75,50,29.92,29.83,9,1,16,0.00
2013-9-9,91,80,73,76,71,65,93,74,45,29.92,29.86,11,3,17,0.14
2013-9-10,91,81,76,74,72,68,89,74,49,30.00,29.91,11,3,16,0.01
2013-9-11,93,82,73,74,70,64,93,69,39,30.02,29.92,8,2,14,0.00
2013-9-12,94,83,74,76,69,60,90,65,34,29.97,29.84,8,2,13,0.00
2013-9-13,96,83,72,73,67,59,89,63,31,29.88,29.73,8,2,13,0.00
2013-9-14,93,83,75,76,71,68,88,70,45,29.86,29.77,9,2,18,0.00
2013-9-15,91,83,75,76,72,69,89,73,51,29.93,29.84,9,2,13,0.00
2013-9-16,93,82,77,76,73,68,89,76,46,29.97,29.88,9,2,19,0.00
2013-9-17,93,83,76,76,73,65,92,73,41,29.98,29.86,12,3,18,0.01
2013-9-18,92,83,75,76,73,68,92,73,49,29.94,29.83,9,2,17,0.00
2013-9-19,90,81,76,79,74,70,93,80,61,29.88,29.78,10,3,18,0.28
2013-9-20,84,78,74,80,75,73,96,91,79,29.82,29.66,15,2,20,3.82
2013-9-21,82,74,70,73,69,65,97,85,60,29.78,29.69,8,3,14,0.31
2013-9-22,87,76,64,66,60,53,86,59,33,29.79,29.67,7,2,12,0.00
2013-9-23,89,80,72,72,64,58,81,60,50,29.75,29.66,7,0,8,0.00
2013-9-24,95,83,75,75,69,58,86,64,29,29.80,29.71,6,1,14,0.00
2013-9-25,97,81,68,72,64,50,91,61,22,29.82,29.71,3,0,10,0.00
2013-9-26,92,80,68,73,65,56,93,65,32,29.85,29.76,9,2,14,0.00
2013-9-27,88,80,73,76,72,68,89,77,62,29.88,29.80,10,4,20,0.00
2013-9-28,88,81,77,78,75,73,89,82,67,29.92,29.82,10,5,17,0.01
2013-9-29,85,79,76,78,74,71,95,84,63,29.92,29.83,7,1,12,0.27
2013-9-30,89,78,73,75,72,70,92,83,57,29.85,29.74,7,1,10,0.06
2013-10-1,87,78,74,75,72,68,95,82,64,29.89,29.79,9,2,14,0.01
2013-10-2,84,77,74,76,73,69,95,87,71,29.91,29.83,12,2,18,0.22
2013-10-3,90,80,73,78,72,69,96,79,52,29.89,29.80,7,2,12,0.01
2013-10-4,90,80,71,76,71,68,95,76,50,29.88,29.81,9,2,14,0.00
2013-10-5,94,82,67,77,70,58,96,70,41,29.90,29.78,12,2,21,0.00
2013-10-6,79,67,55,59,49,40,90,56,27,30.06,29.90,12,5,18,0.24
2013-10-7,81,67,53,53,45,38,82,50,22,30.08,29.97,11,2,11,0.00
2013-10-8,84,67,52,59,51,42,92,63,25,30.04,29.92,3,0,6,0.00
2013-10-9,83,71,57,62,59,55,95,69,42,30.02,29.92,5,1,10,0.00
2013-10-10,86,73,61,67,62,59,94,71,43,30.00,29.87,8,2,13,0.00
2013-10-11,85,77,69,74,70,65,90,79,62,29.90,29.81,10,3,14,0.03
2013-10-12,86,77,73,78,73,70,96,89,69,29.98,29.85,8,1,13,0.27
2013-10-13,75,74,72,74,72,70,96,94,91,30.09,29.97,6,1,14,0.43
2013-10-14,84,77,72,74,70,67,96,82,59,30.03,29.90,8,2,16,0.00
2013-10-15,88,78,71,73,70,67,95,78,54,29.92,29.81,5,1,11,0.00
2013-10-16,73,66,62,69,63,58,93,89,79,29.97,29.83,9,4,16,0.06
2013-10-17,78,67,59,59,56,53,91,70,43,30.02,29.91,6,3,11,0.00
2013-10-18,73,65,58,63,59,54,92,82,66,29.94,29.83,8,2,14,0.18
2013-10-19,71,62,51,62,51,38,96,71,31,30.07,29.90,11,4,20,0.67
2013-10-20,76,61,45,60,50,43,93,70,40,30.03,29.88,6,2,8,0.00
2013-10-21,78,69,62,66,62,58,93,81,61,29.93,29.84,10,2,14,0.00
2013-10-22,76,66,55,64,56,45,92,74,34,30.05,29.91,10,4,17,0.00
2013-10-23,84,65,49,57,50,43,95,65,27,30.11,30.02,4,0,7,0.00
2013-10-24,85,67,52,58,53,46,94,66,28,30.17,30.06,3,0,6,0.00
2013-10-25,76,65,54,58,56,52,93,75,51,30.28,30.16,7,2,11,0.00
2013-10-26,80,68,56,66,58,52,88,73,50,30.20,30.03,9,3,17,0.00
2013-10-27,75,66,61,68,63,58,96,90,73,30.06,29.95,17,1,28,1.10
2013-10-28,83,72,61,71,66,60,96,83,61,30.05,29.96,9,3,16,0.01
2013-10-29,84,75,68,70,68,66,92,79,58,30.05,29.97,10,4,19,0.00
2013-10-30,83,77,73,78,73,69,91,86,75,30.00,29.78,9,5,16,0.20
2013-10-31,77,70,56,75,66,53,97,89,45,29.84,29.71,11,3,14,3.05
2013-11-1,80,65,52,64,56,50,97,76,41,29.92,29.77,7,2,12,0.07
2013-11-2,73,64,54,52,44,35,72,50,26,30.17,29.92,13,5,19,0.00
2013-11-3,70,58,44,53,47,41,92,70,46,30.16,30.02,8,3,16,0.00
2013-11-4,69,64,56,67,60,50,95,89,77,30.03,29.93,9,3,17,0.27
2013-11-5,78,72,67,72,68,65,95,88,73,29.98,29.90,9,2,16,0.08
2013-11-6,80,69,54,74,63,45,96,83,63,30.21,29.92,13,4,21,0.01
2013-11-7,66,56,48,45,40,37,73,55,34,30.35,30.20,9,4,19,0.00
2013-11-8,65,56,48,48,42,32,82,62,31,30.30,30.13,10,2,16,0.00
2013-11-9,71,61,52,58,52,46,89,73,58,30.15,30.08,5,1,8,0.00
2013-11-10,74,63,56,57,50,41,89,66,32,30.24,30.13,5,1,10,0.00
2013-11-11,76,63,52,56,53,50,92,73,45,30.20,30.09,4,1,7,0.00
2013-11-12,72,58,49,55,50,43,92,77,52,30.50,30.16,15,5,22,0.00
2013-11-13,56,46,37,41,29,22,84,54,28,30.56,30.35,10,3,17,0.00
2013-11-14,64,50,38,51,42,33,87,75,57,30.35,30.00,8,2,12,0.00
2013-11-15,78,66,54,65,59,49,94,78,54,30.00,29.84,7,2,12,0.00
2013-11-16,82,72,63,73,68,61,97,88,69,29.89,29.74,11,3,17,0.01
2013-11-17,84,77,71,74,71,69,93,82,62,29.88,29.75,7,2,14,0.00
2013-11-18,77,72,65,72,63,44,98,75,41,30.05,29.87,6,2,11,0.00
2013-11-19,69,62,56,50,46,40,80,56,46,30.08,29.97,9,4,14,0.00
2013-11-20,73,65,55,67,56,43,95,73,60,29.97,29.86,10,4,14,0.07
2013-11-21,80,74,68,74,71,67,95,89,75,30.02,29.90,11,6,17,0.06
2013-11-22,74,54,42,71,52,39,95,91,86,30.24,29.99,14,7,28,0.54
2013-11-23,49,45,42,45,42,38,94,87,72,30.32,30.22,14,7,21,0.02
2013-11-24,49,46,43,38,32,29,73,60,46,30.36,30.24,9,5,16,0.01
2013-11-25,43,41,39,41,38,35,95,91,73,30.24,29.92,10,5,18,0.82
2013-11-26,44,41,38,38,37,34,93,87,77,30.23,29.98,14,8,26,0.27
2013-11-27,49,41,34,35,28,23,83,64,37,30.40,30.24,10,4,16,0.00
2013-11-28,56,43,31,42,36,28,92,78,57,30.41,30.31,5,1,8,0.00
2013-11-29,62,49,37,41,37,31,92,67,40,30.44,30.33,5,2,10,0.00
2013-11-30,72,55,40,54,47,38,93,76,52,30.34,30.16,6,2,10,0.00
2013-12-1,71,61,51,60,56,49,96,85,67,30.16,29.90,7,2,13,0.00
2013-12-2,76,66,61,63,61,59,95,83,61,29.89,29.64,10,2,17,0.00
2013-12-3,79,68,60,67,63,58,96,84,61,29.69,29.58,7,3,16,0.01
2013-12-4,79,73,68,70,68,66,94,85,66,29.76,29.65,7,3,13,0.00
2013-12-5,73,55,38,72,51,35,96,88,74,29.98,29.74,12,6,21,0.00
2013-12-6,42,38,34,36,34,29,94,86,79,30.31,29.93,14,8,21,0.04
2013-12-7,36,34,32,34,30,28,93,85,81,30.35,30.22,9,5,16,0.01
2013-12-8,47,42,35,43,38,33,94,86,73,30.21,30.00,6,2,12,0.00
2013-12-9,46,44,39,45,43,36,95,93,89,30.25,30.00,11,4,18,0.07
2013-12-10,48,39,32,36,29,26,90,69,45,30.41,30.25,12,5,20,0.00
2013-12-11,52,46,36,39,36,29,81,68,55,30.45,30.28,6,2,11,0.00
2013-12-12,54,45,38,38,35,30,86,68,41,30.50,30.30,6,2,10,0.00
2013-12-13,58,51,43,56,46,37,95,84,73,30.30,29.80,7,2,13,0.02
2013-12-14,57,50,40,54,46,32,97,86,66,30.24,29.82,19,6,25,0.01
2013-12-15,56,42,32,36,31,28,89,68,38,30.34,30.22,7,3,12,0.00
2013-12-16,65,46,30,41,34,28,94,67,30,30.30,30.18,4,1,7,0.00
2013-12-17,70,51,35,50,40,33,94,70,32,30.29,30.18,5,1,8,0.00
2013-12-18,70,54,40,56,48,38,96,81,52,30.26,30.05,9,2,14,0.00
2013-12-19,76,66,53,66,60,50,93,83,63,30.05,29.82,13,5,22,0.02
2013-12-20,76,72,68,70,68,66,93,87,79,29.85,29.66,13,7,19,0.00
2013-12-21,74,67,55,71,63,53,96,89,76,29.78,29.53,15,5,28,0.53
2013-12-22,59,52,39,56,46,31,97,79,58,30.28,29.74,15,6,21,0.02
2013-12-23,54,42,33,32,30,27,82,64,37,30.47,30.28,10,5,14,0.00
2013-12-24,57,43,31,35,30,22,92,65,26,30.50,30.27,7,2,11,0.00
2013-12-25,59,51,38,49,44,33,87,76,65,30.30,30.21,8,2,12,0.00
2013-12-26,62,54,48,50,47,43,95,79,50,30.35,30.24,7,2,8,0.00
2013-12-27,59,53,49,45,41,36,81,65,47,30.36,30.25,6,2,11,0.00
2013-12-28,60,50,41,39,35,29,78,59,31,30.26,29.99,3,1,6,0.00
2013-12-29,69,53,37,48,40,33,92,66,28,30.12,29.94,11,2,18,0.00
2013-12-30,46,41,38,39,33,30,78,72,66,30.35,30.12,12,7,18,0.00
2013-12-31,49,44,40,38,33,30,73,64,55,30.40,30.22,6,2,12,0.00
2014-1-1,66,55,46,58,50,38,93,82,67,30.22,29.97,8,2,10,0.00
2014-1-2,59,46,37,57,32,21,96,60,33,30.39,30.01,18,8,28,0.01